sensor_id;sensor_type;location;lat;lon;timestamp;pressure;altitude;pressure_sealevel;temperature;humidity
60240;BME280;46102;39.012;-7.064;2022-12-29T00:00:34;99276.88;;;11.66;86.61
60240;BME280;46102;39.012;-7.064;2022-12-29T00:02:34;99285.47;;;11.64;87.01
60240;BME280;46102;39.012;-7.064;2022-12-29T00:04:35;99289.63;;;11.62;87.83
60240;BME280;46102;39.012;-7.064;2022-12-29T00:06:36;99286.16;;;11.56;88.90
60240;BME280;46102;39.012;-7.064;2022-12-29T00:08:37;99280.97;;;11.55;89.11
60240;BME280;46102;39.012;-7.064;2022-12-29T00:10:40;99271.72;;;11.51;89.34
60240;BME280;46102;39.012;-7.064;2022-12-29T00:12:41;99277.53;;;11.49;89.81
60240;BME280;46102;39.012;-7.064;2022-12-29T00:15:00;99271.81;;;11.45;90.29
60240;BME280;46102;39.012;-7.064;2022-12-29T00:17:20;99268.53;;;11.43;90.42
60240;BME280;46102;39.012;-7.064;2022-12-29T00:19:21;99269.78;;;11.37;91.19
60240;BME280;46102;39.012;-7.064;2022-12-29T00:21:40;99269.06;;;11.32;92.31
60240;BME280;46102;39.012;-7.064;2022-12-29T00:24:00;99269.34;;;11.30;92.53
60240;BME280;46102;39.012;-7.064;2022-12-29T00:26:19;99259.81;;;11.28;93.26
60240;BME280;46102;39.012;-7.064;2022-12-29T00:28:39;99263.38;;;11.28;93.08
60240;BME280;46102;39.012;-7.064;2022-12-29T00:30:59;99262.53;;;11.28;93.82
60240;BME280;46102;39.012;-7.064;2022-12-29T00:33:20;99255.22;;;11.23;94.26
60240;BME280;46102;39.012;-7.064;2022-12-29T00:35:45;99264.25;;;11.23;94.32
60240;BME280;46102;39.012;-7.064;2022-12-29T00:37:47;99265.69;;;11.21;94.68
60240;BME280;46102;39.012;-7.064;2022-12-29T00:40:08;99262.94;;;11.21;94.64
60240;BME280;46102;39.012;-7.064;2022-12-29T00:42:27;99259.22;;;11.17;95.15
60240;BME280;46102;39.012;-7.064;2022-12-29T00:44:47;99249.31;;;11.16;95.32
60240;BME280;46102;39.012;-7.064;2022-12-29T00:46:48;99245.78;;;11.15;95.33
60240;BME280;46102;39.012;-7.064;2022-12-29T00:48:49;99250.22;;;11.11;95.45
60240;BME280;46102;39.012;-7.064;2022-12-29T00:51:08;99247.28;;;11.08;96.34
60240;BME280;46102;39.012;-7.064;2022-12-29T00:53:09;99252.75;;;11.08;96.28
60240;BME280;46102;39.012;-7.064;2022-12-29T00:55:10;99253.59;;;11.08;96.02
60240;BME280;46102;39.012;-7.064;2022-12-29T00:57:11;99251.16;;;11.07;95.95
60240;BME280;46102;39.012;-7.064;2022-12-29T00:59:13;99253.38;;;11.04;96.39
60240;BME280;46102;39.012;-7.064;2022-12-29T01:01:14;99250.41;;;11.01;96.72
60240;BME280;46102;39.012;-7.064;2022-12-29T01:03:14;99245.94;;;11.05;97.02
60240;BME280;46102;39.012;-7.064;2022-12-29T01:05:15;99239.53;;;11.10;96.67
60240;BME280;46102;39.012;-7.064;2022-12-29T01:07:16;99244.34;;;11.04;96.85
60240;BME280;46102;39.012;-7.064;2022-12-29T01:09:19;99239.34;;;11.06;96.97
60240;BME280;46102;39.012;-7.064;2022-12-29T01:11:39;99234.97;;;11.05;96.79
60240;BME280;46102;39.012;-7.064;2022-12-29T01:13:40;99236.81;;;11.10;96.63
60240;BME280;46102;39.012;-7.064;2022-12-29T01:15:49;99241.19;;;11.11;95.91
60240;BME280;46102;39.012;-7.064;2022-12-29T01:17:51;99225.41;;;11.02;96.31
60240;BME280;46102;39.012;-7.064;2022-12-29T01:19:52;99219.22;;;10.97;96.38
60240;BME280;46102;39.012;-7.064;2022-12-29T01:21:52;99222.44;;;10.85;96.91
60240;BME280;46102;39.012;-7.064;2022-12-29T01:23:53;99216.13;;;10.84;97.31
60240;BME280;46102;39.012;-7.064;2022-12-29T01:25:55;99225.56;;;10.78;97.82
60240;BME280;46102;39.012;-7.064;2022-12-29T01:27:55;99223.66;;;10.79;97.85
60240;BME280;46102;39.012;-7.064;2022-12-29T01:29:56;99212.75;;;10.74;98.08
60240;BME280;46102;39.012;-7.064;2022-12-29T01:31:57;99214.91;;;10.77;98.10
60240;BME280;46102;39.012;-7.064;2022-12-29T01:33:58;99221.00;;;10.74;98.52
60240;BME280;46102;39.012;-7.064;2022-12-29T01:36:07;99222.63;;;10.75;98.56
60240;BME280;46102;39.012;-7.064;2022-12-29T01:38:08;99215.50;;;10.74;98.70
60240;BME280;46102;39.012;-7.064;2022-12-29T01:40:09;99214.69;;;10.73;98.75
60240;BME280;46102;39.012;-7.064;2022-12-29T01:42:18;99210.84;;;10.74;98.73
60240;BME280;46102;39.012;-7.064;2022-12-29T01:44:47;99202.63;;;10.74;98.59
60240;BME280;46102;39.012;-7.064;2022-12-29T01:46:50;99195.47;;;10.73;98.65
60240;BME280;46102;39.012;-7.064;2022-12-29T01:48:57;99197.72;;;10.71;98.87
60240;BME280;46102;39.012;-7.064;2022-12-29T01:50:59;99197.72;;;10.71;98.74
60240;BME280;46102;39.012;-7.064;2022-12-29T01:53:15;99213.38;;;10.71;98.88
60240;BME280;46102;39.012;-7.064;2022-12-29T01:55:17;99209.31;;;10.68;99.34
60240;BME280;46102;39.012;-7.064;2022-12-29T01:57:23;99210.72;;;10.66;99.18
60240;BME280;46102;39.012;-7.064;2022-12-29T01:59:33;99218.44;;;10.63;99.36
60240;BME280;46102;39.012;-7.064;2022-12-29T02:01:35;99209.41;;;10.63;99.51
60240;BME280;46102;39.012;-7.064;2022-12-29T02:03:36;99219.88;;;10.61;99.47
60240;BME280;46102;39.012;-7.064;2022-12-29T02:05:42;99222.00;;;10.64;99.45
60240;BME280;46102;39.012;-7.064;2022-12-29T02:07:48;99223.41;;;10.61;99.66
60240;BME280;46102;39.012;-7.064;2022-12-29T02:09:51;99222.28;;;10.62;99.88
60240;BME280;46102;39.012;-7.064;2022-12-29T02:11:53;99211.81;;;10.65;99.68
60240;BME280;46102;39.012;-7.064;2022-12-29T02:13:54;99207.19;;;10.65;99.60
60240;BME280;46102;39.012;-7.064;2022-12-29T02:28:12;99206.34;;;10.65;99.49
60240;BME280;46102;39.012;-7.064;2022-12-29T02:44:04;99217.66;;;10.77;99.16
60240;BME280;46102;39.012;-7.064;2022-12-29T02:48:45;99215.09;;;10.80;98.35
60240;BME280;46102;39.012;-7.064;2022-12-29T02:50:53;99218.38;;;10.82;98.36
60240;BME280;46102;39.012;-7.064;2022-12-29T02:53:06;99215.63;;;10.82;98.36
60240;BME280;46102;39.012;-7.064;2022-12-29T02:55:10;99213.72;;;10.83;98.19
60240;BME280;46102;39.012;-7.064;2022-12-29T02:57:28;99207.38;;;10.82;98.05
60240;BME280;46102;39.012;-7.064;2022-12-29T02:59:29;99208.22;;;10.83;97.79
60240;BME280;46102;39.012;-7.064;2022-12-29T03:01:52;99206.47;;;10.87;97.53
60240;BME280;46102;39.012;-7.064;2022-12-29T03:06:33;99204.97;;;10.95;96.62
60240;BME280;46102;39.012;-7.064;2022-12-29T03:13:07;99208.13;;;10.88;97.08
60240;BME280;46102;39.012;-7.064;2022-12-29T03:15:36;99203.03;;;10.81;97.21
60240;BME280;46102;39.012;-7.064;2022-12-29T03:18:06;99204.34;;;10.84;97.20
60240;BME280;46102;39.012;-7.064;2022-12-29T03:20:16;99201.91;;;10.82;97.67
60240;BME280;46102;39.012;-7.064;2022-12-29T03:22:28;99197.03;;;10.79;97.83
60240;BME280;46102;39.012;-7.064;2022-12-29T03:24:40;99196.22;;;10.79;97.72
60240;BME280;46102;39.012;-7.064;2022-12-29T03:26:43;99207.59;;;10.86;97.87
60240;BME280;46102;39.012;-7.064;2022-12-29T03:28:51;99204.47;;;10.93;97.57
60240;BME280;46102;39.012;-7.064;2022-12-29T03:30:58;99204.88;;;10.86;98.05
60240;BME280;46102;39.012;-7.064;2022-12-29T03:33:07;99192.75;;;10.87;98.10
60240;BME280;46102;39.012;-7.064;2022-12-29T03:35:13;99198.97;;;10.79;98.55
60240;BME280;46102;39.012;-7.064;2022-12-29T03:37:18;99195.72;;;10.77;98.98
60240;BME280;46102;39.012;-7.064;2022-12-29T03:39:23;99197.25;;;10.83;98.64
60240;BME280;46102;39.012;-7.064;2022-12-29T03:41:28;99195.59;;;10.82;99.18
60240;BME280;46102;39.012;-7.064;2022-12-29T03:43:32;99198.97;;;10.79;99.42
60240;BME280;46102;39.012;-7.064;2022-12-29T03:45:34;99198.44;;;10.77;99.35
60240;BME280;46102;39.012;-7.064;2022-12-29T03:47:34;99198.03;;;10.70;99.77
60240;BME280;46102;39.012;-7.064;2022-12-29T03:49:36;99198.84;;;10.70;100.00
60240;BME280;46102;39.012;-7.064;2022-12-29T03:51:38;99187.88;;;10.70;100.00
60240;BME280;46102;39.012;-7.064;2022-12-29T03:53:41;99189.19;;;10.73;99.67
60240;BME280;46102;39.012;-7.064;2022-12-29T03:55:42;99184.22;;;10.75;100.00
60240;BME280;46102;39.012;-7.064;2022-12-29T03:57:44;99183.69;;;10.73;100.00
60240;BME280;46102;39.012;-7.064;2022-12-29T03:59:50;99182.38;;;10.70;100.00
60240;BME280;46102;39.012;-7.064;2022-12-29T04:01:51;99173.41;;;10.65;100.00
60240;BME280;46102;39.012;-7.064;2022-12-29T04:03:53;99181.75;;;10.59;100.00
60240;BME280;46102;39.012;-7.064;2022-12-29T04:05:54;99186.13;;;10.60;100.00
60240;BME280;46102;39.012;-7.064;2022-12-29T04:07:55;99174.13;;;10.56;100.00
60240;BME280;46102;39.012;-7.064;2022-12-29T04:09:57;99188.75;;;10.52;100.00
60240;BME280;46102;39.012;-7.064;2022-12-29T04:12:00;99172.47;;;10.55;100.00
60240;BME280;46102;39.012;-7.064;2022-12-29T04:14:01;99174.84;;;10.62;100.00
60240;BME280;46102;39.012;-7.064;2022-12-29T04:16:04;99169.56;;;10.66;100.00
60240;BME280;46102;39.012;-7.064;2022-12-29T04:18:06;99169.16;;;10.58;100.00
60240;BME280;46102;39.012;-7.064;2022-12-29T04:20:08;99162.75;;;10.49;100.00
60240;BME280;46102;39.012;-7.064;2022-12-29T04:22:29;99167.47;;;10.44;100.00
60240;BME280;46102;39.012;-7.064;2022-12-29T04:24:30;99169.63;;;10.47;100.00
60240;BME280;46102;39.012;-7.064;2022-12-29T04:26:31;99168.28;;;10.44;100.00
60240;BME280;46102;39.012;-7.064;2022-12-29T04:28:40;99173.19;;;10.47;100.00
60240;BME280;46102;39.012;-7.064;2022-12-29T04:30:51;99173.19;;;10.47;100.00
60240;BME280;46102;39.012;-7.064;2022-12-29T04:32:58;99173.19;;;10.47;100.00
60240;BME280;46102;39.012;-7.064;2022-12-29T04:34:59;99177.03;;;10.46;100.00
60240;BME280;46102;39.012;-7.064;2022-12-29T04:37:00;99172.97;;;10.44;100.00
60240;BME280;46102;39.012;-7.064;2022-12-29T04:39:01;99179.50;;;10.48;100.00
60240;BME280;46102;39.012;-7.064;2022-12-29T04:41:03;99183.72;;;10.40;100.00
60240;BME280;46102;39.012;-7.064;2022-12-29T04:43:06;99180.19;;;10.53;100.00
60240;BME280;46102;39.012;-7.064;2022-12-29T04:45:13;99192.06;;;10.49;100.00
60240;BME280;46102;39.012;-7.064;2022-12-29T04:47:26;99190.03;;;10.40;100.00
60240;BME280;46102;39.012;-7.064;2022-12-29T04:49:36;99191.28;;;10.48;100.00
60240;BME280;46102;39.012;-7.064;2022-12-29T04:51:56;99191.28;;;10.48;100.00
60240;BME280;46102;39.012;-7.064;2022-12-29T04:53:57;99191.78;;;10.50;100.00
60240;BME280;46102;39.012;-7.064;2022-12-29T04:55:59;99188.75;;;10.52;100.00
60240;BME280;46102;39.012;-7.064;2022-12-29T04:58:01;99191.41;;;10.57;100.00
60240;BME280;46102;39.012;-7.064;2022-12-29T05:00:06;99187.00;;;10.56;100.00
60240;BME280;46102;39.012;-7.064;2022-12-29T05:02:07;99182.44;;;10.51;100.00
60240;BME280;46102;39.012;-7.064;2022-12-29T05:04:09;99179.19;;;10.49;100.00
60240;BME280;46102;39.012;-7.064;2022-12-29T05:06:10;99182.34;;;10.56;100.00
60240;BME280;46102;39.012;-7.064;2022-12-29T05:08:11;99175.84;;;10.52;100.00
60240;BME280;46102;39.012;-7.064;2022-12-29T05:10:12;99177.47;;;10.53;100.00
60240;BME280;46102;39.012;-7.064;2022-12-29T05:12:13;99182.94;;;10.53;100.00
60240;BME280;46102;39.012;-7.064;2022-12-29T05:14:23;99185.69;;;10.53;100.00
60240;BME280;46102;39.012;-7.064;2022-12-29T05:16:24;99176.66;;;10.53;100.00
60240;BME280;46102;39.012;-7.064;2022-12-29T05:18:24;99180.41;;;10.57;100.00
60240;BME280;46102;39.012;-7.064;2022-12-29T05:20:25;99179.50;;;10.61;100.00
60240;BME280;46102;39.012;-7.064;2022-12-29T05:22:26;99185.22;;;10.65;100.00
60240;BME280;46102;39.012;-7.064;2022-12-29T05:24:29;99186.03;;;10.66;100.00
60240;BME280;46102;39.012;-7.064;2022-12-29T05:26:31;99185.53;;;10.63;100.00
60240;BME280;46102;39.012;-7.064;2022-12-29T05:28:44;99189.59;;;10.66;100.00
60240;BME280;46102;39.012;-7.064;2022-12-29T05:30:49;99182.91;;;10.72;100.00
60240;BME280;46102;39.012;-7.064;2022-12-29T05:32:51;99181.88;;;10.68;100.00
60240;BME280;46102;39.012;-7.064;2022-12-29T05:34:52;99178.59;;;10.66;100.00
60240;BME280;46102;39.012;-7.064;2022-12-29T05:36:53;99184.38;;;10.65;100.00
60240;BME280;46102;39.012;-7.064;2022-12-29T05:38:55;99185.41;;;10.69;100.00
60240;BME280;46102;39.012;-7.064;2022-12-29T05:40:55;99184.38;;;10.65;100.00
60240;BME280;46102;39.012;-7.064;2022-12-29T05:43:25;99179.34;;;10.72;100.00
60240;BME280;46102;39.012;-7.064;2022-12-29T05:45:49;99187.88;;;10.70;100.00
60240;BME280;46102;39.012;-7.064;2022-12-29T05:48:09;99189.06;;;10.64;100.00
60240;BME280;46102;39.012;-7.064;2022-12-29T05:50:23;99183.56;;;10.64;100.00
60240;BME280;46102;39.012;-7.064;2022-12-29T05:52:44;99194.03;;;10.62;100.00
60240;BME280;46102;39.012;-7.064;2022-12-29T05:54:45;99195.69;;;10.63;100.00
60240;BME280;46102;39.012;-7.064;2022-12-29T05:56:50;99195.06;;;10.66;100.00
60240;BME280;46102;39.012;-7.064;2022-12-29T05:58:50;99199.75;;;10.66;100.00
60240;BME280;46102;39.012;-7.064;2022-12-29T06:00:51;99202.69;;;10.69;100.00
60240;BME280;46102;39.012;-7.064;2022-12-29T06:02:53;99199.25;;;10.63;100.00
60240;BME280;46102;39.012;-7.064;2022-12-29T06:04:54;99201.69;;;10.65;100.00
60240;BME280;46102;39.012;-7.064;2022-12-29T06:06:57;99197.00;;;10.66;100.00
60240;BME280;46102;39.012;-7.064;2022-12-29T06:09:10;99206.47;;;10.73;100.00
60240;BME280;46102;39.012;-7.064;2022-12-29T06:11:11;99201.06;;;10.68;100.00
60240;BME280;46102;39.012;-7.064;2022-12-29T06:13:15;99202.09;;;10.72;100.00
60240;BME280;46102;39.012;-7.064;2022-12-29T06:15:18;99208.69;;;10.71;100.00
60240;BME280;46102;39.012;-7.064;2022-12-29T06:17:22;99198.84;;;10.70;100.00
60240;BME280;46102;39.012;-7.064;2022-12-29T06:19:24;99201.59;;;10.70;100.00
60240;BME280;46102;39.012;-7.064;2022-12-29T06:21:25;99199.94;;;10.69;100.00
60240;BME280;46102;39.012;-7.064;2022-12-29T06:23:26;99194.16;;;10.71;100.00
60240;BME280;46102;39.012;-7.064;2022-12-29T06:25:26;99196.09;;;10.70;100.00
60240;BME280;46102;39.012;-7.064;2022-12-29T06:27:28;99200.84;;;10.65;100.00
60240;BME280;46102;39.012;-7.064;2022-12-29T06:29:29;99209.78;;;10.56;100.00
60240;BME280;46102;39.012;-7.064;2022-12-29T06:31:31;99208.16;;;10.55;100.00
60240;BME280;46102;39.012;-7.064;2022-12-29T06:33:32;99193.00;;;10.58;100.00
60240;BME280;46102;39.012;-7.064;2022-12-29T06:35:33;99202.28;;;10.62;100.00
60240;BME280;46102;39.012;-7.064;2022-12-29T06:37:34;99206.66;;;10.63;100.00
60240;BME280;46102;39.012;-7.064;2022-12-29T06:39:35;99205.53;;;10.64;100.00
60240;BME280;46102;39.012;-7.064;2022-12-29T06:41:41;99219.34;;;10.59;100.00
60240;BME280;46102;39.012;-7.064;2022-12-29T06:43:47;99218.84;;;10.57;100.00
60240;BME280;46102;39.012;-7.064;2022-12-29T06:45:58;99220.97;;;10.60;100.00
60240;BME280;46102;39.012;-7.064;2022-12-29T06:47:59;99218.84;;;10.57;100.00
60240;BME280;46102;39.012;-7.064;2022-12-29T06:50:00;99226.16;;;10.61;100.00
60240;BME280;46102;39.012;-7.064;2022-12-29T06:52:01;99223.19;;;10.58;100.00
60240;BME280;46102;39.012;-7.064;2022-12-29T06:54:04;99228.91;;;10.61;100.00
60240;BME280;46102;39.012;-7.064;2022-12-29T06:56:05;99229.31;;;10.69;100.00
60240;BME280;46102;39.012;-7.064;2022-12-29T06:58:06;99236.22;;;10.66;100.00
60240;BME280;46102;39.012;-7.064;2022-12-29T07:00:08;99234.41;;;10.75;100.00
60240;BME280;46102;39.012;-7.064;2022-12-29T07:02:12;99235.63;;;10.69;100.00
60240;BME280;46102;39.012;-7.064;2022-12-29T07:04:15;99244.38;;;10.71;100.00
60240;BME280;46102;39.012;-7.064;2022-12-29T07:06:15;99240.81;;;10.71;100.00
60240;BME280;46102;39.012;-7.064;2022-12-29T07:08:16;99246.59;;;10.69;100.00
60240;BME280;46102;39.012;-7.064;2022-12-29T07:10:17;99249.03;;;10.71;100.00
60240;BME280;46102;39.012;-7.064;2022-12-29T07:12:18;99254.16;;;10.77;100.00
60240;BME280;46102;39.012;-7.064;2022-12-29T07:14:18;99252.53;;;10.76;100.00
60240;BME280;46102;39.012;-7.064;2022-12-29T07:16:19;99252.22;;;10.78;100.00
60240;BME280;46102;39.012;-7.064;2022-12-29T07:18:20;99254.16;;;10.77;100.00
60240;BME280;46102;39.012;-7.064;2022-12-29T07:20:21;99250.88;;;10.75;100.00
60240;BME280;46102;39.012;-7.064;2022-12-29T07:22:22;99246.53;;;10.74;100.00
60240;BME280;46102;39.012;-7.064;2022-12-29T07:24:22;99242.13;;;10.73;100.00
60240;BME280;46102;39.012;-7.064;2022-12-29T07:26:25;99248.38;;;10.79;100.00
60240;BME280;46102;39.012;-7.064;2022-12-29T07:28:26;99247.75;;;10.82;100.00
60240;BME280;46102;39.012;-7.064;2022-12-29T07:30:27;99259.63;;;10.77;100.00
60240;BME280;46102;39.012;-7.064;2022-12-29T07:32:28;99257.00;;;10.72;100.00
60240;BME280;46102;39.012;-7.064;2022-12-29T07:34:28;99260.03;;;10.71;100.00
60240;BME280;46102;39.012;-7.064;2022-12-29T07:36:29;99253.91;;;10.74;100.00
60240;BME280;46102;39.012;-7.064;2022-12-29T07:38:30;99255.84;;;10.73;100.00
60240;BME280;46102;39.012;-7.064;2022-12-29T07:40:31;99256.47;;;10.70;100.00
60240;BME280;46102;39.012;-7.064;2022-12-29T07:42:32;99261.97;;;10.70;100.00
60240;BME280;46102;39.012;-7.064;2022-12-29T07:44:33;99272.94;;;10.70;100.00
60240;BME280;46102;39.012;-7.064;2022-12-29T07:46:50;99275.16;;;10.68;100.00
60240;BME280;46102;39.012;-7.064;2022-12-29T07:48:51;99279.00;;;10.67;100.00
60240;BME280;46102;39.012;-7.064;2022-12-29T07:50:53;99272.72;;;10.67;100.00
60240;BME280;46102;39.012;-7.064;2022-12-29T07:52:53;99281.38;;;10.74;100.00
60240;BME280;46102;39.012;-7.064;2022-12-29T07:54:54;99278.75;;;10.82;100.00
60240;BME280;46102;39.012;-7.064;2022-12-29T07:56:55;99278.56;;;10.79;100.00
60240;BME280;46102;39.012;-7.064;2022-12-29T07:58:56;99274.50;;;10.90;100.00
60240;BME280;46102;39.012;-7.064;2022-12-29T08:00:57;99276.41;;;10.90;100.00
60240;BME280;46102;39.012;-7.064;2022-12-29T08:02:58;99279.66;;;10.78;100.00
60240;BME280;46102;39.012;-7.064;2022-12-29T08:04:59;99277.94;;;10.82;100.00
60240;BME280;46102;39.012;-7.064;2022-12-29T08:06:59;99278.56;;;10.79;100.00
60240;BME280;46102;39.012;-7.064;2022-12-29T08:09:00;99279.13;;;10.76;100.00
60240;BME280;46102;39.012;-7.064;2022-12-29T08:11:02;99287.72;;;10.88;100.00
60240;BME280;46102;39.012;-7.064;2022-12-29T08:13:02;99287.09;;;10.77;100.00
60240;BME280;46102;39.012;-7.064;2022-12-29T08:15:04;99290.59;;;10.97;100.00
60240;BME280;46102;39.012;-7.064;2022-12-29T08:17:05;99276.47;;;11.03;100.00
60240;BME280;46102;39.012;-7.064;2022-12-29T08:19:06;99284.19;;;11.01;100.00
60240;BME280;46102;39.012;-7.064;2022-12-29T08:21:07;99285.28;;;11.00;100.00
60240;BME280;46102;39.012;-7.064;2022-12-29T08:23:07;99281.75;;;11.00;100.00
60240;BME280;46102;39.012;-7.064;2022-12-29T08:25:08;99292.13;;;11.03;100.00
60240;BME280;46102;39.012;-7.064;2022-12-29T08:27:09;99274.66;;;11.13;100.00
60240;BME280;46102;39.012;-7.064;2022-12-29T08:29:10;99280.84;;;11.18;100.00
60240;BME280;46102;39.012;-7.064;2022-12-29T08:31:10;99288.97;;;11.23;100.00
60240;BME280;46102;39.012;-7.064;2022-12-29T08:33:11;99282.00;;;11.31;100.00
60240;BME280;46102;39.012;-7.064;2022-12-29T08:35:12;99288.69;;;11.39;100.00
60240;BME280;46102;39.012;-7.064;2022-12-29T08:37:13;99294.00;;;11.35;100.00
60240;BME280;46102;39.012;-7.064;2022-12-29T08:39:14;99288.41;;;11.40;100.00
60240;BME280;46102;39.012;-7.064;2022-12-29T08:41:14;99285.03;;;11.43;100.00
60240;BME280;46102;39.012;-7.064;2022-12-29T08:43:15;99286.16;;;11.42;100.00
60240;BME280;46102;39.012;-7.064;2022-12-29T08:45:16;99285.16;;;11.38;100.00
60240;BME280;46102;39.012;-7.064;2022-12-29T08:47:17;99292.06;;;11.36;100.00
60240;BME280;46102;39.012;-7.064;2022-12-29T08:49:17;99290.34;;;11.40;100.00
60240;BME280;46102;39.012;-7.064;2022-12-29T08:51:18;99294.81;;;11.36;100.00
60240;BME280;46102;39.012;-7.064;2022-12-29T08:53:19;99293.59;;;11.42;100.00
60240;BME280;46102;39.012;-7.064;2022-12-29T08:55:20;99291.66;;;11.42;100.00
60240;BME280;46102;39.012;-7.064;2022-12-29T08:57:21;99288.28;;;11.45;100.00
60240;BME280;46102;39.012;-7.064;2022-12-29T08:59:38;99300.94;;;11.60;100.00
60240;BME280;46102;39.012;-7.064;2022-12-29T09:01:39;99302.97;;;11.69;100.00
60240;BME280;46102;39.012;-7.064;2022-12-29T09:03:40;99299.91;;;11.70;100.00
60240;BME280;46102;39.012;-7.064;2022-12-29T09:05:41;99300.50;;;11.67;100.00
60240;BME280;46102;39.012;-7.064;2022-12-29T09:07:42;99305.72;;;11.69;100.00
60240;BME280;46102;39.012;-7.064;2022-12-29T09:09:43;99306.13;;;11.76;100.00
60240;BME280;46102;39.012;-7.064;2022-12-29T09:11:43;99310.59;;;11.72;100.00
60240;BME280;46102;39.012;-7.064;2022-12-29T09:13:44;99308.03;;;11.75;100.00
60240;BME280;46102;39.012;-7.064;2022-12-29T09:15:45;99314.88;;;11.78;100.00
60240;BME280;46102;39.012;-7.064;2022-12-29T09:17:46;99324.63;;;11.70;100.00
60240;BME280;46102;39.012;-7.064;2022-12-29T09:19:47;99318.94;;;11.66;100.00
60240;BME280;46102;39.012;-7.064;2022-12-29T09:21:48;99324.22;;;11.77;100.00
60240;BME280;46102;39.012;-7.064;2022-12-29T09:23:48;99327.47;;;11.79;100.00
60240;BME280;46102;39.012;-7.064;2022-12-29T09:25:49;99327.19;;;11.80;100.00
60240;BME280;46102;39.012;-7.064;2022-12-29T09:27:51;99319.63;;;11.86;100.00
60240;BME280;46102;39.012;-7.064;2022-12-29T09:29:53;99335.03;;;12.01;100.00
60240;BME280;46102;39.012;-7.064;2022-12-29T09:31:54;99330.97;;;11.98;100.00
60240;BME280;46102;39.012;-7.064;2022-12-29T09:33:55;99348.97;;;12.04;100.00
60240;BME280;46102;39.012;-7.064;2022-12-29T09:35:58;99346.53;;;12.03;100.00
60240;BME280;46102;39.012;-7.064;2022-12-29T09:37:59;99344.22;;;11.96;100.00
60240;BME280;46102;39.012;-7.064;2022-12-29T09:39:59;99350.59;;;12.05;100.00
60240;BME280;46102;39.012;-7.064;2022-12-29T09:42:14;99352.31;;;12.15;100.00
60240;BME280;46102;39.012;-7.064;2022-12-29T09:44:42;99347.56;;;12.07;100.00
60240;BME280;46102;39.012;-7.064;2022-12-29T09:46:49;99341.66;;;12.14;100.00
60240;BME280;46102;39.012;-7.064;2022-12-29T09:49:00;99337.66;;;12.06;100.00
60240;BME280;46102;39.012;-7.064;2022-12-29T09:51:10;99340.28;;;12.11;100.00
60240;BME280;46102;39.012;-7.064;2022-12-29T09:55:21;99343.66;;;12.22;100.00
60240;BME280;46102;39.012;-7.064;2022-12-29T09:57:36;99340.63;;;12.10;100.00
60240;BME280;46102;39.012;-7.064;2022-12-29T09:59:40;99353.75;;;12.13;100.00
60240;BME280;46102;39.012;-7.064;2022-12-29T10:01:59;99351.81;;;12.13;100.00
60240;BME280;46102;39.012;-7.064;2022-12-29T10:04:05;99350.78;;;12.23;100.00
60240;BME280;46102;39.012;-7.064;2022-12-29T10:06:26;99343.66;;;12.22;100.00
60240;BME280;46102;39.012;-7.064;2022-12-29T10:08:40;99354.53;;;12.27;100.00
60240;BME280;46102;39.012;-7.064;2022-12-29T10:18:06;99382.38;;;12.25;100.00
60240;BME280;46102;39.012;-7.064;2022-12-29T10:25:00;99363.13;;;12.25;100.00
60240;BME280;46102;39.012;-7.064;2022-12-29T10:27:10;99367.47;;;12.26;100.00
60240;BME280;46102;39.012;-7.064;2022-12-29T10:29:29;99363.66;;;12.14;100.00
60240;BME280;46102;39.012;-7.064;2022-12-29T10:31:39;99360.88;;;12.27;100.00
60240;BME280;46102;39.012;-7.064;2022-12-29T10:33:42;99359.81;;;12.37;100.00
60240;BME280;46102;39.012;-7.064;2022-12-29T10:35:43;99361.03;;;12.31;100.00
60240;BME280;46102;39.012;-7.064;2022-12-29T10:40:14;99361.56;;;12.33;100.00
60240;BME280;46102;39.012;-7.064;2022-12-29T10:42:39;99368.06;;;12.37;100.00
60240;BME280;46102;39.012;-7.064;2022-12-29T10:44:43;99358.25;;;12.45;100.00
60240;BME280;46102;39.012;-7.064;2022-12-29T10:46:44;99346.81;;;12.52;100.00
60240;BME280;46102;39.012;-7.064;2022-12-29T10:48:48;99350.72;;;12.50;100.00
60240;BME280;46102;39.012;-7.064;2022-12-29T10:50:50;99350.72;;;12.50;100.00
60240;BME280;46102;39.012;-7.064;2022-12-29T10:52:54;99345.78;;;12.61;100.00
60240;BME280;46102;39.012;-7.064;2022-12-29T10:55:01;99338.53;;;12.88;100.00
60240;BME280;46102;39.012;-7.064;2022-12-29T11:01:20;99333.03;;;13.10;100.00
60240;BME280;46102;39.012;-7.064;2022-12-29T11:03:47;99325.88;;;13.09;100.00
60240;BME280;46102;39.012;-7.064;2022-12-29T11:06:10;99323.88;;;13.01;100.00
60240;BME280;46102;39.012;-7.064;2022-12-29T11:08:17;99323.41;;;13.08;100.00
60240;BME280;46102;39.012;-7.064;2022-12-29T11:12:35;99320.09;;;13.20;100.00
60240;BME280;46102;39.012;-7.064;2022-12-29T11:14:36;99326.22;;;13.39;100.00
60240;BME280;46102;39.012;-7.064;2022-12-29T11:16:38;99322.88;;;13.60;100.00
60240;BME280;46102;39.012;-7.064;2022-12-29T11:18:40;99321.97;;;13.73;100.00
60240;BME280;46102;39.012;-7.064;2022-12-29T11:20:42;99326.91;;;13.85;100.00
60240;BME280;46102;39.012;-7.064;2022-12-29T11:22:44;99325.25;;;13.84;100.00
60240;BME280;46102;39.012;-7.064;2022-12-29T11:24:46;99321.19;;;13.81;100.00
60240;BME280;46102;39.012;-7.064;2022-12-29T11:26:50;99309.72;;;13.97;100.00
60240;BME280;46102;39.012;-7.064;2022-12-29T11:31:09;99314.09;;;14.06;100.00
60240;BME280;46102;39.012;-7.064;2022-12-29T11:33:10;99312.16;;;14.07;100.00
60240;BME280;46102;39.012;-7.064;2022-12-29T11:35:30;99310.38;;;14.11;100.00
60240;BME280;46102;39.012;-7.064;2022-12-29T11:37:37;99307.78;;;14.32;100.00
60240;BME280;46102;39.012;-7.064;2022-12-29T11:39:41;99306.00;;;14.27;100.00
60240;BME280;46102;39.012;-7.064;2022-12-29T11:41:51;99301.16;;;14.50;100.00
60240;BME280;46102;39.012;-7.064;2022-12-29T11:43:55;99297.47;;;14.55;100.00
60240;BME280;46102;39.012;-7.064;2022-12-29T11:45:59;99294.97;;;14.45;100.00
60240;BME280;46102;39.012;-7.064;2022-12-29T11:48:14;99301.97;;;14.51;100.00